Terminal Aerodrome Forecast
Issued by NWS Wilmington, NC

Home | Current Version | Previous Version | Text Only | Print | Product List | Glossary On
Versions: 1 2 3 4 5 6 7 8 9 10 11 12 13 14 15 16 17
000
FTUS42 KILM 221100
TAFILM
TAF
KILM 221130Z 2212/2312 01007KT 3SM BR VCSH OVC003
      TEMPO 2212/2215 2SM SHRA BR OVC005
     FM221600 33006KT P6SM SCT005 OVC007
     FM222300 35004KT P6SM OVC010
     FM230400 36004KT 3SM BR VCSH OVC006=

USA.gov is the U.S. government's official web portal to all federal, state and local government web resources and services.